Airfield :
LOGIN :

Register | Disclaimer

   EN    FR    IT 

 










Legend :    VFR   Marginal VFR   IFR   Intensive IFR   Very Intensive IFR
Visi :
Ceiling :
>= 8 km
>= 3000ft
5 to 8 km
1000 to 3000 ft
1500m to 5 km
500 to 1000 ft
800 to 1500m
200 to 500 ft
< 800m
< 200 ft
Symbols :   Thunderstorms  Fog  Heavy snow  Heavy precipitations  Wind > 20 kt
SIGMETs :     Misc.  Thunderstorms  Icing  Turbulence  Mountain Waves  Volcanic Ashes






- Airport Elevation : 16 ft
- IATA code : SDR


LEXJ - Santander Cantabria

CURRENT METAR :
  • 070700Z 23005KT 200V260 CAVOK 19/15 Q1029

EXPIRED METARs :
  • 070630Z 23005KT 210V270 CAVOK 18/15 Q1029
  • 070600Z 22007KT CAVOK 17/14 Q1029
  • 070530Z 22007KT CAVOK 16/14 Q1028
  • 070500Z 22008KT CAVOK 16/14 Q1028
  • 070430Z 23006KT CAVOK 16/15 Q1028

TAF TAF LEXJ
Valid from the 07 at 03:00 until the 08 at 03:00 UTC


070200Z 0703/0803 30009KT 9999 FEW015 TX25/0713Z TN16/0705Z
PROB40
TEMPO 0703/0708 22010KT
PROB30
TEMPO 0703/0706 3000 BR BKN010
PROB30
TEMPO 0706/0803 BKN010
PROB40
TEMPO 0712/0718 36010KT



MET'MAP, your aeronautical weather chart ! - Copyright ORBIFLY December 2007 - Disclaimer

ORBIFLY MET'MAP TEAM :

Programming & Development : Alexandra Zaïnal
Original concept : Baudouin d'Aumeries
Technical & hardware support : Manuel Goepfert
Assistance : Marc-Olivier Méhu




SOURCES & CREDITS :

   NOAA